createdAt,value
2018-08-22T00:01:38.134Z,12.50
2018-08-22T00:04:06.460Z,12.50
2018-08-22T00:06:34.354Z,12.50
2018-08-22T00:09:02.145Z,12.50
2018-08-22T00:11:30.076Z,12.50
2018-08-22T00:13:58.160Z,12.50
2018-08-22T00:16:26.610Z,12.50
2018-08-22T00:18:54.392Z,12.50
2018-08-22T00:21:22.315Z,12.50
2018-08-22T00:23:49.995Z,12.60
2018-08-22T00:26:17.973Z,12.60
2018-08-22T00:28:46.019Z,12.50
2018-08-22T00:31:13.898Z,12.60
2018-08-22T00:33:41.836Z,12.70
2018-08-22T00:36:09.626Z,12.70
2018-08-22T00:38:37.758Z,12.70
2018-08-22T00:41:05.579Z,12.70
2018-08-22T00:43:33.653Z,12.70
2018-08-22T00:46:01.420Z,12.80
2018-08-22T00:48:29.578Z,12.80
2018-08-22T00:50:57.557Z,12.80
2018-08-22T00:53:25.463Z,12.80
2018-08-22T00:55:53.506Z,12.80
2018-08-22T00:58:21.685Z,12.80
2018-08-22T01:00:49.647Z,12.80
2018-08-22T01:03:17.686Z,12.80
2018-08-22T01:05:45.526Z,12.80
2018-08-22T01:08:13.350Z,12.70
2018-08-22T01:10:41.101Z,12.80
2018-08-22T01:13:09.421Z,12.90
2018-08-22T01:15:37.447Z,12.90
2018-08-22T01:18:05.452Z,12.90
2018-08-22T01:20:33.402Z,12.90
2018-08-22T01:23:01.199Z,13.00
2018-08-22T01:25:29.042Z,13.00
2018-08-22T01:27:56.990Z,13.10
2018-08-22T01:30:24.776Z,13.20
2018-08-22T01:32:52.537Z,13.10
2018-08-22T01:35:21.112Z,13.10
2018-08-22T01:37:49.221Z,13.10
2018-08-22T01:40:17.685Z,13.20
2018-08-22T01:42:45.497Z,13.20
2018-08-22T01:45:13.537Z,13.20
2018-08-22T01:47:41.516Z,13.20
2018-08-22T01:50:09.165Z,13.20
2018-08-22T01:52:37.185Z,13.20
2018-08-22T01:55:04.929Z,13.20
2018-08-22T01:57:32.844Z,13.30
2018-08-22T02:00:00.735Z,13.30
2018-08-22T02:02:29.146Z,13.40
2018-08-22T02:04:57.006Z,13.40
2018-08-22T02:07:24.888Z,13.40
2018-08-22T02:09:52.988Z,13.40
2018-08-22T02:12:21.741Z,13.40
2018-08-22T02:14:49.747Z,13.40
2018-08-22T02:17:17.654Z,13.50
2018-08-22T02:19:45.607Z,13.50
2018-08-22T02:22:13.765Z,13.50
2018-08-22T02:24:41.489Z,13.60
2018-08-22T02:27:09.507Z,13.60
2018-08-22T02:29:37.272Z,13.60
2018-08-22T02:32:05.785Z,13.60
2018-08-22T02:34:33.912Z,13.60
2018-08-22T02:37:02.291Z,13.60
2018-08-22T02:39:30.413Z,13.60
2018-08-22T02:41:58.425Z,13.60
2018-08-22T02:44:26.995Z,13.60
2018-08-22T02:46:54.820Z,13.70
2018-08-22T02:49:23.030Z,13.80
2018-08-22T02:51:50.994Z,13.80
2018-08-22T02:54:19.646Z,13.80
2018-08-22T02:56:47.787Z,13.80
2018-08-22T02:59:15.690Z,13.70
2018-08-22T03:01:43.686Z,13.70
2018-08-22T03:04:11.484Z,13.80
2018-08-22T03:06:39.392Z,13.70
2018-08-22T03:09:08.249Z,13.80
2018-08-22T03:11:36.141Z,13.70
2018-08-22T03:14:04.138Z,13.70
2018-08-22T03:16:32.603Z,13.60
2018-08-22T03:19:00.674Z,13.60
2018-08-22T03:21:28.636Z,13.60
2018-08-22T03:23:56.651Z,13.50
2018-08-22T03:26:24.609Z,13.50
2018-08-22T03:28:52.531Z,13.50
2018-08-22T03:31:20.998Z,13.50
2018-08-22T03:33:48.991Z,13.50
2018-08-22T03:36:16.847Z,13.50
2018-08-22T03:38:44.850Z,13.50
2018-08-22T03:41:12.720Z,13.50
2018-08-22T03:43:40.858Z,13.60
2018-08-22T03:46:08.768Z,13.60
2018-08-22T03:48:36.710Z,13.60
2018-08-22T03:51:04.591Z,13.60
2018-08-22T03:53:32.658Z,13.70
2018-08-22T03:56:00.945Z,13.70
2018-08-22T03:58:29.167Z,13.70
2018-08-22T04:00:57.296Z,13.70
2018-08-22T04:03:25.107Z,13.80
2018-08-22T04:05:53.093Z,13.80
2018-08-22T04:08:21.055Z,13.80
2018-08-22T04:10:49.136Z,13.80
2018-08-22T04:13:17.517Z,13.90
2018-08-22T04:15:46.502Z,13.80
2018-08-22T04:18:14.355Z,13.90
2018-08-22T04:20:42.330Z,13.90
2018-08-22T04:23:10.917Z,14.00
2018-08-22T04:25:39.202Z,14.00
2018-08-22T04:28:07.092Z,14.00
2018-08-22T04:30:35.415Z,14.00
2018-08-22T04:33:03.368Z,14.10
2018-08-22T04:35:31.129Z,14.00
2018-08-22T04:37:59.599Z,14.10
2018-08-22T04:40:27.502Z,14.10
2018-08-22T04:42:57.117Z,14.20
2018-08-22T04:45:25.047Z,14.20
2018-08-22T04:47:53.006Z,14.20
2018-08-22T04:50:21.132Z,14.20
2018-08-22T04:52:49.264Z,14.20
2018-08-22T04:55:17.523Z,14.20
2018-08-22T04:57:45.503Z,14.30
2018-08-22T05:00:13.714Z,14.30
2018-08-22T05:02:42.566Z,14.30
2018-08-22T05:05:10.754Z,14.30
2018-08-22T05:07:38.836Z,14.40
2018-08-22T05:10:07.403Z,14.40
2018-08-22T05:12:35.355Z,14.50
2018-08-22T05:15:03.473Z,14.60
2018-08-22T05:17:31.474Z,14.60
2018-08-22T05:19:59.596Z,14.70
2018-08-22T05:22:28.035Z,14.70
2018-08-22T05:24:55.901Z,14.70
2018-08-22T05:27:24.015Z,14.80
2018-08-22T05:29:51.976Z,14.90
2018-08-22T05:32:19.989Z,15.00
2018-08-22T05:34:47.933Z,15.00
2018-08-22T05:37:16.224Z,15.10
2018-08-22T05:39:44.068Z,15.10
2018-08-22T05:42:12.374Z,15.20
2018-08-22T05:44:40.547Z,15.30
2018-08-22T05:47:09.009Z,15.30
2018-08-22T05:49:37.176Z,15.40
2018-08-22T05:52:05.849Z,15.50
2018-08-22T05:54:33.744Z,15.60
2018-08-22T05:57:02.241Z,15.60
2018-08-22T05:59:31.341Z,15.70
2018-08-22T06:02:00.259Z,15.80
2018-08-22T06:04:29.025Z,15.80
2018-08-22T06:06:58.241Z,15.80
2018-08-22T06:09:26.499Z,15.80
2018-08-22T06:11:54.989Z,15.90
2018-08-22T06:14:23.100Z,15.90
2018-08-22T06:16:51.343Z,16.00
2018-08-22T06:19:20.455Z,16.10
2018-08-22T06:21:48.650Z,16.20
2018-08-22T06:24:17.230Z,16.40
2018-08-22T06:26:47.636Z,16.90
2018-08-22T06:29:16.829Z,17.40
2018-08-22T06:31:44.862Z,17.90
2018-08-22T06:34:13.289Z,18.40
2018-08-22T06:36:41.875Z,18.80
2018-08-22T06:39:10.980Z,19.00
2018-08-22T06:41:39.819Z,19.10
2018-08-22T06:44:08.191Z,19.60
2018-08-22T06:46:36.581Z,20.20
2018-08-22T06:49:04.790Z,20.40
2018-08-22T06:51:33.835Z,20.60
2018-08-22T06:54:02.007Z,20.80
2018-08-22T06:56:30.561Z,20.80
2018-08-22T06:58:58.705Z,20.60
2018-08-22T07:01:27.425Z,20.50
2018-08-22T07:03:55.481Z,20.40
2018-08-22T07:06:23.502Z,20.30
2018-08-22T07:08:52.160Z,20.00
2018-08-22T07:11:20.131Z,19.90
2018-08-22T07:13:49.382Z,19.80
2018-08-22T07:16:17.705Z,19.80
2018-08-22T07:18:45.799Z,20.10
2018-08-22T07:21:20.515Z,20.60
2018-08-22T07:23:48.756Z,21.00
2018-08-22T07:26:17.003Z,21.20
2018-08-22T07:28:45.017Z,21.20
2018-08-22T07:31:13.134Z,21.40
2018-08-22T07:33:41.211Z,21.30
2018-08-22T07:36:09.184Z,21.40
2018-08-22T07:38:37.074Z,21.50
2018-08-22T07:41:05.174Z,21.70
2018-08-22T07:43:32.875Z,21.90
2018-08-22T07:46:00.890Z,22.00
2018-08-22T07:48:28.869Z,22.20
2018-08-22T07:50:56.844Z,22.50
2018-08-22T07:53:25.241Z,22.60
2018-08-22T07:55:53.131Z,22.70
2018-08-22T07:58:20.963Z,22.60
2018-08-22T08:00:48.942Z,22.60
2018-08-22T08:03:16.937Z,22.40
2018-08-22T08:05:45.072Z,22.50
2018-08-22T08:08:13.374Z,22.50
2018-08-22T08:10:41.401Z,22.50
2018-08-22T08:13:41.569Z,22.60
2018-08-22T08:16:09.408Z,22.50
2018-08-22T08:18:37.508Z,22.60
2018-08-22T08:21:05.907Z,22.70
2018-08-22T08:23:34.092Z,22.70
2018-08-22T08:26:02.053Z,22.80
2018-08-22T08:28:30.651Z,22.80
2018-08-22T08:30:58.357Z,22.80
2018-08-22T08:33:26.415Z,22.80
2018-08-22T08:35:54.199Z,22.70
2018-08-22T08:38:22.775Z,22.70
2018-08-22T08:40:50.813Z,22.70
2018-08-22T08:43:18.823Z,22.70
2018-08-22T08:45:46.751Z,22.80
2018-08-22T08:48:16.050Z,22.90
2018-08-22T08:50:44.243Z,23.10
2018-08-22T08:53:13.225Z,23.30
2018-08-22T08:55:42.198Z,23.30
2018-08-22T08:58:10.172Z,23.30
2018-08-22T09:00:38.394Z,23.40
2018-08-22T09:03:06.804Z,23.30
2018-08-22T09:05:35.277Z,23.50
2018-08-22T09:08:03.945Z,23.70
2018-08-22T09:10:32.078Z,23.90
2018-08-22T09:13:00.301Z,24.10
2018-08-22T09:15:28.291Z,24.20
2018-08-22T09:17:56.525Z,24.20
2018-08-22T09:20:24.693Z,24.50
2018-08-22T09:22:52.611Z,24.40
2018-08-22T09:25:21.157Z,24.60
2018-08-22T09:27:49.084Z,24.60
2018-08-22T09:30:17.103Z,24.80
2018-08-22T09:32:45.895Z,25.10
2018-08-22T09:35:15.902Z,25.40
2018-08-22T09:37:44.500Z,25.70
2018-08-22T09:40:12.495Z,25.60
2018-08-22T09:42:40.894Z,25.70
2018-08-22T09:45:08.983Z,25.80
2018-08-22T09:47:36.885Z,25.80
2018-08-22T09:50:05.826Z,26.00
2018-08-22T09:52:34.662Z,26.10
2018-08-22T09:55:04.056Z,26.20
2018-08-22T09:57:32.368Z,26.20
2018-08-22T10:00:00.447Z,26.10
2018-08-22T10:02:28.682Z,26.20
2018-08-22T10:04:57.387Z,26.40
2018-08-22T10:07:25.542Z,26.60
2018-08-22T10:09:54.403Z,26.80
2018-08-22T10:12:22.500Z,27.10
2018-08-22T10:14:50.941Z,27.20
2018-08-22T10:17:19.740Z,27.40
2018-08-22T10:19:47.831Z,27.30
2018-08-22T10:22:16.213Z,27.20
2018-08-22T10:24:44.517Z,27.20
2018-08-22T10:27:13.134Z,27.10
2018-08-22T10:29:41.040Z,27.00
2018-08-22T10:32:09.362Z,26.90
2018-08-22T10:34:37.398Z,26.90
2018-08-22T10:37:05.387Z,27.00
2018-08-22T10:39:33.453Z,27.10
2018-08-22T10:42:01.801Z,27.30
2018-08-22T10:44:29.750Z,27.60
2018-08-22T10:46:57.811Z,27.90
2018-08-22T10:49:26.964Z,28.00
2018-08-22T10:51:56.018Z,28.00
2018-08-22T10:54:24.641Z,28.10
2018-08-22T10:56:52.723Z,28.10
2018-08-22T10:59:20.873Z,28.10
2018-08-22T11:01:48.884Z,28.10
2018-08-22T11:04:17.100Z,27.80
2018-08-22T11:06:45.417Z,27.90
2018-08-22T11:09:14.060Z,27.90
2018-08-22T11:11:42.680Z,27.80
2018-08-22T11:14:10.939Z,27.80
2018-08-22T11:16:39.262Z,28.00
2018-08-22T11:19:08.056Z,28.10
2018-08-22T11:21:47.152Z,28.30
2018-08-22T11:24:26.345Z,28.20
2018-08-22T11:27:05.820Z,28.10
2018-08-22T11:29:45.222Z,28.20
2018-08-22T11:32:24.700Z,28.30
2018-08-22T11:34:52.281Z,28.30
2018-08-22T11:37:20.384Z,28.50
2018-08-22T11:39:49.939Z,28.60
2018-08-22T11:42:18.481Z,28.60
2018-08-22T11:44:47.316Z,28.30
2018-08-22T11:47:15.646Z,28.20
2018-08-22T11:49:43.940Z,28.20
2018-08-22T11:52:12.169Z,28.20
2018-08-22T11:54:40.180Z,28.20
2018-08-22T11:57:08.396Z,28.30
2018-08-22T11:59:36.774Z,28.60
2018-08-22T12:02:05.359Z,28.60
2018-08-22T12:04:33.648Z,28.50
2018-08-22T12:07:02.584Z,28.50
2018-08-22T12:09:31.004Z,28.60
2018-08-22T12:11:59.465Z,28.50
2018-08-22T12:14:28.607Z,28.60
2018-08-22T12:16:56.987Z,28.80
2018-08-22T12:19:26.431Z,28.80
2018-08-22T12:21:54.668Z,28.90
2018-08-22T12:24:23.130Z,28.70
2018-08-22T12:26:51.582Z,28.60
2018-08-22T12:29:19.793Z,28.60
2018-08-22T12:31:47.944Z,28.50
2018-08-22T12:34:16.347Z,28.50
2018-08-22T12:36:44.178Z,28.60
2018-08-22T12:39:12.889Z,28.60
2018-08-22T12:41:41.683Z,28.70
2018-08-22T12:44:10.048Z,28.70
2018-08-22T12:46:38.163Z,28.70
2018-08-22T12:49:06.188Z,28.60
2018-08-22T12:51:34.362Z,28.70
2018-08-22T12:54:03.707Z,28.70
2018-08-22T12:56:31.829Z,28.60
2018-08-22T12:59:00.515Z,28.50
2018-08-22T13:01:28.381Z,28.30
2018-08-22T13:03:56.482Z,28.20
2018-08-22T13:06:24.458Z,28.10
2018-08-22T13:08:52.777Z,28.10
2018-08-22T13:11:21.037Z,28.20
2018-08-22T13:13:50.162Z,28.40
2018-08-22T13:16:18.327Z,28.60
2018-08-22T13:18:46.507Z,28.80
2018-08-22T13:21:14.785Z,28.70
2018-08-22T13:23:43.399Z,28.50
2018-08-22T13:26:11.761Z,28.40
2018-08-22T13:28:40.158Z,28.30
2018-08-22T13:31:08.228Z,28.20
2018-08-22T13:33:36.283Z,28.20
2018-08-22T13:36:04.546Z,28.20
2018-08-22T13:38:33.265Z,28.20
2018-08-22T13:41:01.398Z,28.30
2018-08-22T13:43:29.636Z,28.30
2018-08-22T13:45:57.880Z,28.30
2018-08-22T13:48:26.105Z,28.30
2018-08-22T13:50:54.075Z,28.30
2018-08-22T13:53:21.997Z,28.20
2018-08-22T13:55:50.046Z,28.20
2018-08-22T13:58:18.227Z,28.10
2018-08-22T14:00:46.425Z,28.00
2018-08-22T14:03:14.709Z,28.00
2018-08-22T14:05:42.808Z,28.00
2018-08-22T14:08:11.060Z,28.00
2018-08-22T14:10:39.253Z,28.00
2018-08-22T14:13:07.374Z,28.00
2018-08-22T14:15:36.168Z,28.00
2018-08-22T14:18:04.190Z,28.10
2018-08-22T14:20:32.544Z,28.10
2018-08-22T14:23:00.579Z,28.00
2018-08-22T14:25:29.410Z,27.90
2018-08-22T14:27:57.853Z,27.80
2018-08-22T14:30:26.042Z,27.70
2018-08-22T14:32:54.415Z,27.60
2018-08-22T14:35:22.492Z,27.50
2018-08-22T14:37:50.560Z,27.50
2018-08-22T14:40:18.632Z,27.50
2018-08-22T14:42:46.881Z,27.40
2018-08-22T14:45:15.023Z,27.30
2018-08-22T14:47:43.676Z,27.30
2018-08-22T14:50:12.161Z,27.20
2018-08-22T14:52:40.635Z,27.00
2018-08-22T14:55:20.945Z,26.80
2018-08-22T14:57:48.934Z,26.70
2018-08-22T15:00:17.211Z,26.80
2018-08-22T15:02:46.262Z,27.00
2018-08-22T15:05:14.386Z,27.20
2018-08-22T15:07:43.094Z,27.40
2018-08-22T15:10:14.293Z,27.50
2018-08-22T15:12:42.438Z,27.60
2018-08-22T15:15:11.183Z,27.70
2018-08-22T15:17:39.357Z,27.70
2018-08-22T15:20:07.936Z,27.60
2018-08-22T15:22:37.281Z,27.70
2018-08-22T15:25:06.006Z,27.70
2018-08-22T15:27:34.220Z,27.90
2018-08-22T15:30:02.620Z,28.00
2018-08-22T15:32:31.681Z,28.00
2018-08-22T15:34:59.749Z,28.00
2018-08-22T15:37:28.354Z,27.80
2018-08-22T15:39:56.526Z,27.60
2018-08-22T15:42:26.637Z,27.40
2018-08-22T15:44:55.572Z,27.30
2018-08-22T15:47:23.571Z,27.20
2018-08-22T15:49:51.444Z,27.10
2018-08-22T15:52:19.737Z,27.10
2018-08-22T15:55:07.356Z,27.10
2018-08-22T15:57:49.762Z,27.10
2018-08-22T16:00:47.396Z,27.10
2018-08-22T16:03:15.622Z,27.10
2018-08-22T16:05:44.614Z,27.10
2018-08-22T16:08:13.484Z,27.10
2018-08-22T16:10:42.419Z,27.10
2018-08-22T16:13:18.038Z,27.10
2018-08-22T16:15:47.118Z,27.20
2018-08-22T16:18:15.975Z,27.40
2018-08-22T16:20:51.777Z,27.50
2018-08-22T16:23:20.741Z,27.50
2018-08-22T16:25:51.036Z,27.50
2018-08-22T16:28:20.794Z,27.30
2018-08-22T16:30:57.041Z,27.10
2018-08-22T16:33:21.342Z,27.00
2018-08-22T16:35:50.228Z,26.80
2018-08-22T16:38:18.947Z,26.80
2018-08-22T16:40:50.695Z,26.70
2018-08-22T16:43:35.925Z,26.50
2018-08-22T16:46:07.968Z,26.40
2018-08-22T16:48:37.400Z,26.30
2018-08-22T16:51:05.316Z,26.20
2018-08-22T16:53:34.274Z,26.10
2018-08-22T16:56:02.731Z,25.90
2018-08-22T16:58:31.003Z,25.80
2018-08-22T17:00:59.380Z,25.70
2018-08-22T17:03:28.586Z,25.60
2018-08-22T17:06:02.804Z,25.50
2018-08-22T17:08:32.058Z,25.40
2018-08-22T17:11:02.617Z,25.30
2018-08-22T17:13:49.775Z,25.20
2018-08-22T17:16:18.146Z,25.00
2018-08-22T17:18:48.486Z,24.80
2018-08-22T17:21:17.194Z,24.60
2018-08-22T17:23:46.965Z,24.30
2018-08-22T17:26:17.317Z,24.20
2018-08-22T17:28:48.722Z,24.10
2018-08-22T17:31:17.402Z,24.00
2018-08-22T17:33:50.196Z,23.90
2018-08-22T17:36:19.078Z,23.60
2018-08-22T17:38:48.984Z,23.50
2018-08-22T17:41:17.898Z,23.30
2018-08-22T17:44:02.853Z,23.20
2018-08-22T17:46:32.778Z,23.10
2018-08-22T17:49:01.421Z,23.00
2018-08-22T17:51:29.637Z,22.90
2018-08-22T17:53:58.410Z,22.80
2018-08-22T17:56:27.227Z,22.70
2018-08-22T17:58:56.235Z,22.60
2018-08-22T18:01:24.700Z,22.50
2018-08-22T18:03:56.539Z,22.40
2018-08-22T18:06:24.941Z,22.30
2018-08-22T18:08:53.193Z,22.20
2018-08-22T18:11:21.168Z,22.00
2018-08-22T18:13:49.803Z,21.90
2018-08-22T18:16:17.924Z,21.70
2018-08-22T18:18:48.560Z,21.60
2018-08-22T18:21:16.802Z,21.50
2018-08-22T18:23:51.737Z,21.40
2018-08-22T18:26:20.593Z,21.40
2018-08-22T18:28:48.429Z,21.30
2018-08-22T18:31:17.319Z,21.20
2018-08-22T18:33:58.119Z,21.10
2018-08-22T18:36:28.086Z,21.00
2018-08-22T18:39:04.777Z,20.90
2018-08-22T18:41:33.339Z,20.80
2018-08-22T18:44:02.055Z,20.60
2018-08-22T18:46:30.401Z,20.50
2018-08-22T18:48:59.225Z,20.40
2018-08-22T18:51:27.905Z,20.30
2018-08-22T18:53:56.397Z,20.20
2018-08-22T18:56:24.902Z,20.10
2018-08-22T18:58:54.057Z,20.00
2018-08-22T19:01:22.510Z,19.90
2018-08-22T19:03:50.883Z,19.80
2018-08-22T19:06:19.151Z,19.80
2018-08-22T19:08:48.131Z,19.60
2018-08-22T19:11:17.109Z,19.40
2018-08-22T19:13:47.499Z,19.20
2018-08-22T19:16:16.868Z,19.10
2018-08-22T19:18:45.697Z,19.10
2018-08-22T19:21:14.292Z,19.10
2018-08-22T19:23:44.581Z,19.00
2018-08-22T19:26:13.632Z,19.00
2018-08-22T19:28:53.825Z,19.00
2018-08-22T19:31:22.876Z,18.90
2018-08-22T19:33:51.171Z,18.90
2018-08-22T19:36:19.587Z,18.80
2018-08-22T19:38:48.023Z,18.80
2018-08-22T19:41:36.691Z,18.70
2018-08-22T19:44:06.108Z,18.70
2018-08-22T19:46:35.209Z,18.50
2018-08-22T19:49:04.271Z,18.40
2018-08-22T19:51:32.637Z,18.40
2018-08-22T19:54:06.834Z,18.30
2018-08-22T19:56:35.154Z,18.30
2018-08-22T19:59:04.502Z,18.30
2018-08-22T20:01:35.225Z,18.20
2018-08-22T20:04:03.868Z,18.10
2018-08-22T20:06:31.838Z,18.00
2018-08-22T20:09:00.753Z,18.00
2018-08-22T20:11:31.571Z,17.90
2018-08-22T20:14:07.613Z,17.90
2018-08-22T20:16:36.031Z,17.80
2018-08-22T20:19:05.201Z,17.80
2018-08-22T20:21:35.033Z,17.70
2018-08-22T20:24:04.214Z,17.60
2018-08-22T20:26:32.907Z,17.60
2018-08-22T20:29:02.475Z,17.50
2018-08-22T20:31:31.420Z,17.40
2018-08-22T20:34:10.328Z,17.40
2018-08-22T20:36:38.902Z,17.40
2018-08-22T20:39:10.505Z,17.30
2018-08-22T20:41:39.486Z,17.20
2018-08-22T20:44:14.190Z,17.20
2018-08-22T20:46:44.819Z,17.10
2018-08-22T20:49:13.276Z,17.10
2018-08-22T20:51:42.169Z,17.00
2018-08-22T20:54:11.475Z,17.00
2018-08-22T20:56:48.082Z,16.90
2018-08-22T20:59:17.752Z,16.90
2018-08-22T21:01:49.408Z,16.80
2018-08-22T21:04:17.491Z,16.70
2018-08-22T21:06:45.415Z,16.70
2018-08-22T21:09:13.919Z,16.70
2018-08-22T21:11:44.068Z,16.60
2018-08-22T21:14:12.509Z,16.50
2018-08-22T21:16:40.439Z,16.50
2018-08-22T21:19:08.504Z,16.50
2018-08-22T21:21:36.727Z,16.40
2018-08-22T21:24:05.002Z,16.40
2018-08-22T21:26:43.699Z,16.40
2018-08-22T21:29:12.090Z,16.30
2018-08-22T21:31:40.204Z,16.20
2018-08-22T21:34:23.676Z,16.20
2018-08-22T21:36:51.988Z,16.10
2018-08-22T21:39:23.157Z,16.10
2018-08-22T21:41:51.591Z,16.10
2018-08-22T21:44:20.854Z,16.10
2018-08-22T21:47:00.322Z,16.00
2018-08-22T21:49:28.868Z,16.00
2018-08-22T21:51:59.530Z,16.00
2018-08-22T21:54:27.889Z,15.90
2018-08-22T21:56:55.872Z,15.90
2018-08-22T21:59:24.256Z,15.90
2018-08-22T22:01:57.725Z,15.80
2018-08-22T22:04:29.946Z,15.80
2018-08-22T22:06:58.006Z,15.80
2018-08-22T22:09:26.073Z,15.80
2018-08-22T22:11:57.111Z,15.70
2018-08-22T22:14:26.901Z,15.70
2018-08-22T22:16:56.880Z,15.70
2018-08-22T22:19:26.707Z,15.60
2018-08-22T22:21:54.896Z,15.60
2018-08-22T22:24:22.743Z,15.60
2018-08-22T22:26:50.690Z,15.50
2018-08-22T22:29:18.635Z,15.40
2018-08-22T22:31:46.930Z,15.40
2018-08-22T22:34:14.927Z,15.40
2018-08-22T22:36:43.167Z,15.40
2018-08-22T22:39:45.782Z,15.40
2018-08-22T22:42:17.966Z,15.30
2018-08-22T22:44:48.109Z,15.30
2018-08-22T22:47:21.537Z,15.20
2018-08-22T22:49:50.396Z,15.20
2018-08-22T22:52:28.650Z,15.20
2018-08-22T22:54:57.812Z,15.10
2018-08-22T22:57:26.001Z,15.10
2018-08-22T22:59:54.120Z,15.10
2018-08-22T23:02:23.673Z,15.00
2018-08-22T23:04:52.390Z,15.00
2018-08-22T23:07:24.685Z,14.90
2018-08-22T23:09:53.852Z,14.90
2018-08-22T23:12:56.193Z,14.90
2018-08-22T23:15:28.849Z,14.90
2018-08-22T23:17:57.887Z,14.90
2018-08-22T23:20:34.999Z,14.80
2018-08-22T23:23:03.876Z,14.80
2018-08-22T23:25:32.193Z,14.80
2018-08-22T23:28:00.340Z,14.70
2018-08-22T23:30:35.423Z,14.70
2018-08-22T23:33:04.239Z,14.60
2018-08-22T23:35:33.716Z,14.70
2018-08-22T23:38:09.004Z,14.60
2018-08-22T23:40:37.076Z,14.60
2018-08-22T23:43:06.028Z,14.60
2018-08-22T23:45:36.006Z,14.60
2018-08-22T23:48:04.886Z,14.60
2018-08-22T23:50:53.371Z,14.60
2018-08-22T23:53:21.463Z,14.60
2018-08-22T23:55:49.697Z,14.50
2018-08-22T23:58:17.901Z,14.50
